sensor_id;sensor_type;location;lat;lon;timestamp;pressure;altitude;pressure_sealevel;temperature;humidity
6150;BME280;3106;42.670;23.318;2024-03-08T00:01:56;94460.19;;;5.99;100.00
6150;BME280;3106;42.670;23.318;2024-03-08T00:04:24;94459.25;;;5.95;100.00
6150;BME280;3106;42.670;23.318;2024-03-08T00:06:51;94449.88;;;5.90;100.00
6150;BME280;3106;42.670;23.318;2024-03-08T00:09:18;94461.28;;;5.98;100.00
6150;BME280;3106;42.670;23.318;2024-03-08T00:11:44;94449.59;;;5.91;100.00
6150;BME280;3106;42.670;23.318;2024-03-08T00:14:11;94448.34;;;5.89;100.00
6150;BME280;3106;42.670;23.318;2024-03-08T00:20:01;94459.88;;;5.93;100.00
6150;BME280;3106;42.670;23.318;2024-03-08T00:22:33;94453.31;;;5.98;100.00
6150;BME280;3106;42.670;23.318;2024-03-08T00:25:00;94456.63;;;5.87;100.00
6150;BME280;3106;42.670;23.318;2024-03-08T00:27:27;94456.91;;;5.86;100.00
6150;BME280;3106;42.670;23.318;2024-03-08T00:29:56;94449.88;;;5.90;100.00
6150;BME280;3106;42.670;23.318;2024-03-08T00:32:23;94450.06;;;5.93;100.00
6150;BME280;3106;42.670;23.318;2024-03-08T00:34:50;94449.25;;;5.93;100.00
6150;BME280;3106;42.670;23.318;2024-03-08T00:37:18;94447.72;;;5.92;100.00
6150;BME280;3106;42.670;23.318;2024-03-08T00:39:45;94443.50;;;5.91;100.00
6150;BME280;3106;42.670;23.318;2024-03-08T00:42:12;94436.03;;;5.84;100.00
6150;BME280;3106;42.670;23.318;2024-03-08T00:44:39;94439.59;;;5.80;100.00
6150;BME280;3106;42.670;23.318;2024-03-08T00:47:05;94446.25;;;5.77;100.00
6150;BME280;3106;42.670;23.318;2024-03-08T00:49:32;94435.97;;;5.76;100.00
6150;BME280;3106;42.670;23.318;2024-03-08T00:51:59;94430.19;;;5.65;100.00
6150;BME280;3106;42.670;23.318;2024-03-08T00:54:27;94429.69;;;5.55;100.00
6150;BME280;3106;42.670;23.318;2024-03-08T00:56:56;94426.75;;;5.56;100.00
6150;BME280;3106;42.670;23.318;2024-03-08T00:59:23;94426.13;;;5.51;100.00
6150;BME280;3106;42.670;23.318;2024-03-08T01:01:49;94424.22;;;5.43;100.00
6150;BME280;3106;42.670;23.318;2024-03-08T01:04:16;94419.22;;;5.41;100.00
6150;BME280;3106;42.670;23.318;2024-03-08T01:06:44;94410.66;;;5.44;100.00
6150;BME280;3106;42.670;23.318;2024-03-08T01:09:12;94410.50;;;5.41;100.00
6150;BME280;3106;42.670;23.318;2024-03-08T01:11:41;94410.03;;;5.39;100.00
6150;BME280;3106;42.670;23.318;2024-03-08T01:14:08;94409.41;;;5.33;100.00
6150;BME280;3106;42.670;23.318;2024-03-08T01:16:35;94404.88;;;5.34;100.00
6150;BME280;3106;42.670;23.318;2024-03-08T01:19:01;94405.81;;;5.29;100.00
6150;BME280;3106;42.670;23.318;2024-03-08T01:21:29;94405.81;;;5.29;100.00
6150;BME280;3106;42.670;23.318;2024-03-08T01:23:55;94411.25;;;5.24;100.00
6150;BME280;3106;42.670;23.318;2024-03-08T01:26:22;94401.28;;;5.21;100.00
6150;BME280;3106;42.670;23.318;2024-03-08T01:28:50;94397.97;;;5.16;100.00
6150;BME280;3106;42.670;23.318;2024-03-08T01:31:17;94398.78;;;5.25;100.00
6150;BME280;3106;42.670;23.318;2024-03-08T01:33:44;94395.03;;;5.26;100.00
6150;BME280;3106;42.670;23.318;2024-03-08T01:36:10;94405.34;;;5.27;100.00
6150;BME280;3106;42.670;23.318;2024-03-08T01:38:40;94396.47;;;5.32;100.00
6150;BME280;3106;42.670;23.318;2024-03-08T01:41:08;94397.09;;;5.29;100.00
6150;BME280;3106;42.670;23.318;2024-03-08T01:43:35;94395.50;;;5.28;100.00
6150;BME280;3106;42.670;23.318;2024-03-08T01:46:03;94395.34;;;5.24;100.00
6150;BME280;3106;42.670;23.318;2024-03-08T01:48:31;94394.41;;;5.20;100.00
6150;BME280;3106;42.670;23.318;2024-03-08T01:50:59;94390.53;;;5.26;100.00
6150;BME280;3106;42.670;23.318;2024-03-08T01:53:26;94391.91;;;5.24;100.00
6150;BME280;3106;42.670;23.318;2024-03-08T01:55:56;94393.81;;;5.32;100.00
6150;BME280;3106;42.670;23.318;2024-03-08T01:58:23;94387.91;;;5.35;100.00
6150;BME280;3106;42.670;23.318;2024-03-08T02:00:53;94389.28;;;5.32;100.00
6150;BME280;3106;42.670;23.318;2024-03-08T02:03:22;94379.28;;;5.21;100.00
6150;BME280;3106;42.670;23.318;2024-03-08T02:05:49;94379.94;;;5.35;100.00
6150;BME280;3106;42.670;23.318;2024-03-08T02:08:17;94388.22;;;5.42;100.00
6150;BME280;3106;42.670;23.318;2024-03-08T02:10:44;94379.63;;;5.45;100.00
6150;BME280;3106;42.670;23.318;2024-03-08T02:13:11;94375.28;;;5.49;100.00
6150;BME280;3106;42.670;23.318;2024-03-08T02:15:56;94389.94;;;5.63;100.00
6150;BME280;3106;42.670;23.318;2024-03-08T02:18:26;94391.03;;;5.71;100.00
6150;BME280;3106;42.670;23.318;2024-03-08T02:20:55;94391.66;;;5.76;100.00
6150;BME280;3106;42.670;23.318;2024-03-08T02:23:22;94397.28;;;5.83;100.00
6150;BME280;3106;42.670;23.318;2024-03-08T02:25:50;94399.50;;;5.90;100.00
6150;BME280;3106;42.670;23.318;2024-03-08T02:28:17;94397.47;;;5.95;100.00
6150;BME280;3106;42.670;23.318;2024-03-08T02:30:44;94396.22;;;5.93;100.00
6150;BME280;3106;42.670;23.318;2024-03-08T02:33:13;94390.94;;;5.84;100.00
6150;BME280;3106;42.670;23.318;2024-03-08T02:35:43;94406.00;;;5.75;100.00
6150;BME280;3106;42.670;23.318;2024-03-08T02:38:12;94405.84;;;5.63;100.00
6150;BME280;3106;42.670;23.318;2024-03-08T02:40:41;94412.84;;;5.51;100.00
6150;BME280;3106;42.670;23.318;2024-03-08T02:43:08;94403.81;;;5.52;100.00
6150;BME280;3106;42.670;23.318;2024-03-08T02:45:35;94409.59;;;5.54;100.00
6150;BME280;3106;42.670;23.318;2024-03-08T02:48:02;94415.53;;;5.68;100.00
6150;BME280;3106;42.670;23.318;2024-03-08T02:50:28;94406.31;;;5.57;100.00
6150;BME280;3106;42.670;23.318;2024-03-08T02:52:55;94411.47;;;5.53;100.00
6150;BME280;3106;42.670;23.318;2024-03-08T02:55:23;94408.19;;;5.56;100.00
6150;BME280;3106;42.670;23.318;2024-03-08T02:57:51;94415.50;;;5.51;100.00
6150;BME280;3106;42.670;23.318;2024-03-08T03:00:20;94417.53;;;5.54;100.00
6150;BME280;3106;42.670;23.318;2024-03-08T03:02:47;94410.38;;;5.54;100.00
6150;BME280;3106;42.670;23.318;2024-03-08T03:05:13;94413.94;;;5.50;100.00
6150;BME280;3106;42.670;23.318;2024-03-08T03:07:40;94414.41;;;5.43;100.00
6150;BME280;3106;42.670;23.318;2024-03-08T03:10:08;94410.97;;;5.43;100.00
6150;BME280;3106;42.670;23.318;2024-03-08T03:12:36;94411.44;;;5.45;100.00
6150;BME280;3106;42.670;23.318;2024-03-08T03:15:03;94409.88;;;5.44;100.00
6150;BME280;3106;42.670;23.318;2024-03-08T03:17:32;94417.38;;;5.42;100.00
6150;BME280;3106;42.670;23.318;2024-03-08T03:19:58;94414.09;;;5.45;100.00
6150;BME280;3106;42.670;23.318;2024-03-08T03:22:28;94429.09;;;5.49;100.00
6150;BME280;3106;42.670;23.318;2024-03-08T03:24:55;94425.00;;;5.43;100.00
6150;BME280;3106;42.670;23.318;2024-03-08T03:27:23;94428.91;;;5.46;100.00
6150;BME280;3106;42.670;23.318;2024-03-08T03:29:51;94430.31;;;5.52;100.00
6150;BME280;3106;42.670;23.318;2024-03-08T03:32:18;94432.34;;;5.55;100.00
6150;BME280;3106;42.670;23.318;2024-03-08T03:34:45;94428.59;;;5.56;100.00
6150;BME280;3106;42.670;23.318;2024-03-08T03:37:11;94435.94;;;5.50;100.00
6150;BME280;3106;42.670;23.318;2024-03-08T03:39:39;94434.06;;;5.51;100.00
6150;BME280;3106;42.670;23.318;2024-03-08T03:42:14;94439.84;;;5.53;100.00
6150;BME280;3106;42.670;23.318;2024-03-08T03:44:41;94448.41;;;5.50;100.00
6150;BME280;3106;42.670;23.318;2024-03-08T03:47:10;94443.09;;;5.50;100.00
6150;BME280;3106;42.670;23.318;2024-03-08T03:49:36;94443.91;;;5.50;100.00
6150;BME280;3106;42.670;23.318;2024-03-08T03:52:08;94448.13;;;5.51;100.00
6150;BME280;3106;42.670;23.318;2024-03-08T03:54:35;94448.72;;;5.57;100.00
6150;BME280;3106;42.670;23.318;2024-03-08T03:57:02;94450.94;;;5.63;100.00
6150;BME280;3106;42.670;23.318;2024-03-08T03:59:34;94450.78;;;5.68;100.00
6150;BME280;3106;42.670;23.318;2024-03-08T04:02:01;94448.31;;;5.72;100.00
6150;BME280;3106;42.670;23.318;2024-03-08T04:04:32;94452.94;;;5.58;100.00
6150;BME280;3106;42.670;23.318;2024-03-08T04:06:58;94459.50;;;5.60;100.00
6150;BME280;3106;42.670;23.318;2024-03-08T04:09:25;94457.16;;;5.59;100.00
6150;BME280;3106;42.670;23.318;2024-03-08T04:11:53;94462.78;;;5.57;100.00
6150;BME280;3106;42.670;23.318;2024-03-08T04:14:23;94461.38;;;5.51;100.00
6150;BME280;3106;42.670;23.318;2024-03-08T04:16:50;94453.53;;;5.46;100.00
6150;BME280;3106;42.670;23.318;2024-03-08T04:19:16;94468.22;;;5.44;100.00
6150;BME280;3106;42.670;23.318;2024-03-08T04:21:47;94469.75;;;5.36;100.00
6150;BME280;3106;42.670;23.318;2024-03-08T04:24:14;94462.09;;;5.26;100.00
6150;BME280;3106;42.670;23.318;2024-03-08T04:26:42;94473.28;;;5.23;100.00
6150;BME280;3106;42.670;23.318;2024-03-08T04:29:11;94478.88;;;5.22;100.00
6150;BME280;3106;42.670;23.318;2024-03-08T04:31:40;94477.81;;;5.23;100.00
6150;BME280;3106;42.670;23.318;2024-03-08T04:34:07;94483.38;;;5.13;100.00
6150;BME280;3106;42.670;23.318;2024-03-08T04:36:33;94482.09;;;5.02;100.00
6150;BME280;3106;42.670;23.318;2024-03-08T04:39:02;94460.66;;;4.81;100.00
6150;BME280;3106;42.670;23.318;2024-03-08T04:41:29;94484.28;;;5.00;100.00
6150;BME280;3106;42.670;23.318;2024-03-08T04:43:57;94487.63;;;5.22;100.00
6150;BME280;3106;42.670;23.318;2024-03-08T04:46:24;94466.69;;;5.04;100.00
6150;BME280;3106;42.670;23.318;2024-03-08T04:48:51;94490.09;;;5.19;100.00
6150;BME280;3106;42.670;23.318;2024-03-08T04:51:17;94486.34;;;5.11;100.00
6150;BME280;3106;42.670;23.318;2024-03-08T04:53:44;94487.09;;;5.03;100.00
6150;BME280;3106;42.670;23.318;2024-03-08T04:56:13;94492.38;;;4.95;100.00
6150;BME280;3106;42.670;23.318;2024-03-08T04:58:40;94466.53;;;4.70;100.00
6150;BME280;3106;42.670;23.318;2024-03-08T05:01:06;94492.13;;;4.83;100.00
6150;BME280;3106;42.670;23.318;2024-03-08T05:03:36;94487.44;;;4.80;100.00
6150;BME280;3106;42.670;23.318;2024-03-08T05:06:04;94451.00;;;4.55;100.00
6150;BME280;3106;42.670;23.318;2024-03-08T05:08:30;94496.47;;;4.79;100.00
6150;BME280;3106;42.670;23.318;2024-03-08T05:10:59;94499.16;;;4.87;100.00
6150;BME280;3106;42.670;23.318;2024-03-08T05:13:30;94473.44;;;4.88;100.00
6150;BME280;3106;42.670;23.318;2024-03-08T05:15:57;94499.00;;;5.14;100.00
6150;BME280;3106;42.670;23.318;2024-03-08T05:18:23;94498.25;;;5.22;100.00
6150;BME280;3106;42.670;23.318;2024-03-08T05:20:50;94506.66;;;5.24;100.00
6150;BME280;3106;42.670;23.318;2024-03-08T05:23:17;94506.00;;;5.19;100.00
6150;BME280;3106;42.670;23.318;2024-03-08T05:25:45;94518.31;;;5.15;100.00
6150;BME280;3106;42.670;23.318;2024-03-08T05:28:12;94520.66;;;5.16;100.00
6150;BME280;3106;42.670;23.318;2024-03-08T05:30:40;94526.25;;;5.15;100.00
6150;BME280;3106;42.670;23.318;2024-03-08T05:33:06;94530.59;;;5.11;100.00
6150;BME280;3106;42.670;23.318;2024-03-08T05:35:35;94533.44;;;5.14;100.00
6150;BME280;3106;42.670;23.318;2024-03-08T05:38:02;94538.56;;;5.11;100.00
6150;BME280;3106;42.670;23.318;2024-03-08T05:40:29;94543.84;;;5.11;100.00
6150;BME280;3106;42.670;23.318;2024-03-08T05:42:57;94544.81;;;5.15;100.00
6150;BME280;3106;42.670;23.318;2024-03-08T05:45:23;94534.53;;;5.22;100.00
6150;BME280;3106;42.670;23.318;2024-03-08T05:47:52;94539.84;;;5.22;100.00
6150;BME280;3106;42.670;23.318;2024-03-08T05:50:19;94548.94;;;5.29;100.00
6150;BME280;3106;42.670;23.318;2024-03-08T05:52:46;94556.59;;;5.39;100.00
6150;BME280;3106;42.670;23.318;2024-03-08T05:55:13;94558.97;;;5.41;100.00
6150;BME280;3106;42.670;23.318;2024-03-08T05:57:42;94557.69;;;5.38;100.00
6150;BME280;3106;42.670;23.318;2024-03-08T06:00:10;94563.00;;;5.38;100.00
6150;BME280;3106;42.670;23.318;2024-03-08T06:02:37;94557.06;;;5.33;100.00
6150;BME280;3106;42.670;23.318;2024-03-08T06:05:10;94567.38;;;5.43;100.00
6150;BME280;3106;42.670;23.318;2024-03-08T06:07:37;94570.94;;;5.38;100.00
6150;BME280;3106;42.670;23.318;2024-03-08T06:10:07;94579.69;;;5.39;100.00
6150;BME280;3106;42.670;23.318;2024-03-08T06:12:35;94584.03;;;5.35;100.00
6150;BME280;3106;42.670;23.318;2024-03-08T06:15:06;94578.59;;;5.40;100.00
6150;BME280;3106;42.670;23.318;2024-03-08T06:17:32;94581.72;;;5.42;100.00
6150;BME280;3106;42.670;23.318;2024-03-08T06:20:00;94593.75;;;5.48;100.00
6150;BME280;3106;42.670;23.318;2024-03-08T06:22:28;94589.53;;;5.47;100.00
6150;BME280;3106;42.670;23.318;2024-03-08T06:24:56;94578.94;;;5.47;100.00
6150;BME280;3106;42.670;23.318;2024-03-08T06:27:23;94594.72;;;5.52;100.00
6150;BME280;3106;42.670;23.318;2024-03-08T06:29:49;94590.34;;;5.47;100.00
6150;BME280;3106;42.670;23.318;2024-03-08T06:32:16;94583.50;;;5.55;100.00
6150;BME280;3106;42.670;23.318;2024-03-08T06:34:44;94593.47;;;5.49;100.00
6150;BME280;3106;42.670;23.318;2024-03-08T06:37:10;94601.09;;;5.51;100.00
6150;BME280;3106;42.670;23.318;2024-03-08T06:39:39;94599.25;;;5.51;100.00
6150;BME280;3106;42.670;23.318;2024-03-08T06:42:05;94598.91;;;5.53;100.00
6150;BME280;3106;42.670;23.318;2024-03-08T06:44:34;94607.06;;;5.56;100.00
6150;BME280;3106;42.670;23.318;2024-03-08T06:47:01;94602.03;;;5.55;100.00
6150;BME280;3106;42.670;23.318;2024-03-08T06:49:28;94599.53;;;5.50;100.00
6150;BME280;3106;42.670;23.318;2024-03-08T06:51:54;94610.00;;;5.55;100.00
6150;BME280;3106;42.670;23.318;2024-03-08T06:54:22;94605.97;;;5.57;100.00
6150;BME280;3106;42.670;23.318;2024-03-08T06:56:51;94605.69;;;5.67;100.00
6150;BME280;3106;42.670;23.318;2024-03-08T06:59:18;94603.69;;;5.73;100.00
6150;BME280;3106;42.670;23.318;2024-03-08T07:01:44;94604.81;;;5.80;100.00
6150;BME280;3106;42.670;23.318;2024-03-08T07:04:11;94610.31;;;5.84;100.00
6150;BME280;3106;42.670;23.318;2024-03-08T07:06:38;94617.16;;;5.85;100.00
6150;BME280;3106;42.670;23.318;2024-03-08T07:09:06;94603.06;;;5.76;100.00
6150;BME280;3106;42.670;23.318;2024-03-08T07:11:32;94616.88;;;5.86;100.00
6150;BME280;3106;42.670;23.318;2024-03-08T07:14:01;94601.50;;;5.75;100.00
6150;BME280;3106;42.670;23.318;2024-03-08T07:16:30;94580.25;;;5.66;100.00
6150;BME280;3106;42.670;23.318;2024-03-08T07:18:57;94613.31;;;5.99;100.00
6150;BME280;3106;42.670;23.318;2024-03-08T07:21:24;94624.44;;;6.09;100.00
6150;BME280;3106;42.670;23.318;2024-03-08T07:23:51;94623.19;;;6.15;100.00
6150;BME280;3106;42.670;23.318;2024-03-08T07:26:38;94624.31;;;6.23;100.00
6150;BME280;3106;42.670;23.318;2024-03-08T07:29:06;94621.50;;;6.28;100.00
6150;BME280;3106;42.670;23.318;2024-03-08T07:31:34;94610.09;;;6.27;100.00
6150;BME280;3106;42.670;23.318;2024-03-08T07:34:10;94631.34;;;6.36;100.00
6150;BME280;3106;42.670;23.318;2024-03-08T07:36:37;94627.28;;;6.30;100.00
6150;BME280;3106;42.670;23.318;2024-03-08T07:39:04;94633.69;;;6.29;100.00
6150;BME280;3106;42.670;23.318;2024-03-08T07:41:36;94627.72;;;6.23;100.00
6150;BME280;3106;42.670;23.318;2024-03-08T07:44:07;94634.00;;;6.27;100.00
6150;BME280;3106;42.670;23.318;2024-03-08T07:46:34;94631.94;;;6.24;100.00
6150;BME280;3106;42.670;23.318;2024-03-08T07:49:01;94636.50;;;6.41;100.00
6150;BME280;3106;42.670;23.318;2024-03-08T07:51:28;94627.00;;;6.48;100.00
6150;BME280;3106;42.670;23.318;2024-03-08T07:53:56;94626.81;;;6.36;100.00
6150;BME280;3106;42.670;23.318;2024-03-08T07:56:22;94633.56;;;6.42;100.00
6150;BME280;3106;42.670;23.318;2024-03-08T07:58:50;94632.16;;;6.45;100.00
6150;BME280;3106;42.670;23.318;2024-03-08T08:01:19;94636.69;;;6.44;100.00
6150;BME280;3106;42.670;23.318;2024-03-08T08:03:47;94637.31;;;6.41;100.00
6150;BME280;3106;42.670;23.318;2024-03-08T08:06:15;94606.69;;;6.27;100.00
6150;BME280;3106;42.670;23.318;2024-03-08T08:08:42;94638.38;;;6.49;100.00
6150;BME280;3106;42.670;23.318;2024-03-08T08:11:09;94635.44;;;6.50;100.00
6150;BME280;3106;42.670;23.318;2024-03-08T08:13:37;94629.97;;;6.38;100.00
6150;BME280;3106;42.670;23.318;2024-03-08T08:16:04;94631.38;;;6.44;100.00
6150;BME280;3106;42.670;23.318;2024-03-08T08:18:33;94625.94;;;6.58;100.00
6150;BME280;3106;42.670;23.318;2024-03-08T08:21:03;94623.72;;;6.77;100.00
6150;BME280;3106;42.670;23.318;2024-03-08T08:23:31;94622.63;;;7.03;100.00
6150;BME280;3106;42.670;23.318;2024-03-08T08:25:58;94628.06;;;7.32;97.29
6150;BME280;3106;42.670;23.318;2024-03-08T08:28:25;94627.59;;;7.30;94.67
6150;BME280;3106;42.670;23.318;2024-03-08T08:30:51;94633.34;;;7.41;94.77
6150;BME280;3106;42.670;23.318;2024-03-08T08:33:22;94628.69;;;7.21;94.17
6150;BME280;3106;42.670;23.318;2024-03-08T08:35:52;94641.06;;;7.17;94.74
6150;BME280;3106;42.670;23.318;2024-03-08T08:38:19;94639.78;;;7.31;96.43
6150;BME280;3106;42.670;23.318;2024-03-08T08:40:47;94627.41;;;7.43;94.54
6150;BME280;3106;42.670;23.318;2024-03-08T08:43:13;94635.84;;;7.45;92.27
6150;BME280;3106;42.670;23.318;2024-03-08T08:45:40;94632.03;;;7.63;92.32
6150;BME280;3106;42.670;23.318;2024-03-08T08:48:08;94592.00;;;7.60;91.86
6150;BME280;3106;42.670;23.318;2024-03-08T08:50:35;94617.41;;;7.86;91.31
6150;BME280;3106;42.670;23.318;2024-03-08T08:53:04;94619.00;;;8.08;88.44
6150;BME280;3106;42.670;23.318;2024-03-08T08:55:32;94625.34;;;7.95;89.37
6150;BME280;3106;42.670;23.318;2024-03-08T08:58:01;94624.19;;;7.75;87.92
6150;BME280;3106;42.670;23.318;2024-03-08T09:00:28;94618.69;;;7.72;89.00
6150;BME280;3106;42.670;23.318;2024-03-08T09:02:57;94628.44;;;8.05;86.89
6150;BME280;3106;42.670;23.318;2024-03-08T09:05:24;94628.84;;;8.16;86.83
6150;BME280;3106;42.670;23.318;2024-03-08T09:07:51;94622.13;;;8.10;83.75
6150;BME280;3106;42.670;23.318;2024-03-08T09:10:21;94625.25;;;8.12;84.87
6150;BME280;3106;42.670;23.318;2024-03-08T09:12:48;94622.94;;;8.10;84.34
6150;BME280;3106;42.670;23.318;2024-03-08T09:15:18;94621.78;;;8.20;84.07
6150;BME280;3106;42.670;23.318;2024-03-08T09:17:46;94622.31;;;8.05;84.71
6150;BME280;3106;42.670;23.318;2024-03-08T09:20:13;94617.25;;;7.83;84.68
6150;BME280;3106;42.670;23.318;2024-03-08T09:22:40;94615.44;;;8.04;86.11
6150;BME280;3106;42.670;23.318;2024-03-08T09:25:08;94617.50;;;7.98;84.98
6150;BME280;3106;42.670;23.318;2024-03-08T09:27:36;94613.41;;;8.01;84.23
6150;BME280;3106;42.670;23.318;2024-03-08T09:30:05;94619.13;;;8.20;85.12
6150;BME280;3106;42.670;23.318;2024-03-08T09:32:32;94616.13;;;8.30;85.18
6150;BME280;3106;42.670;23.318;2024-03-08T09:34:59;94603.31;;;8.44;81.60
6150;BME280;3106;42.670;23.318;2024-03-08T09:37:26;94617.06;;;8.75;80.43
6150;BME280;3106;42.670;23.318;2024-03-08T09:39:54;94614.13;;;8.68;80.68
6150;BME280;3106;42.670;23.318;2024-03-08T09:42:21;94618.09;;;8.82;79.91
6150;BME280;3106;42.670;23.318;2024-03-08T09:44:50;94622.28;;;9.24;79.73
6150;BME280;3106;42.670;23.318;2024-03-08T09:47:17;94620.81;;;9.14;78.00
6150;BME280;3106;42.670;23.318;2024-03-08T09:49:44;94616.47;;;8.90;76.91
6150;BME280;3106;42.670;23.318;2024-03-08T09:52:12;94608.34;;;8.86;77.63
6150;BME280;3106;42.670;23.318;2024-03-08T09:54:39;94623.03;;;8.72;77.73
6150;BME280;3106;42.670;23.318;2024-03-08T09:57:10;94622.03;;;8.56;77.82
6150;BME280;3106;42.670;23.318;2024-03-08T09:59:37;94604.13;;;8.44;79.35
6150;BME280;3106;42.670;23.318;2024-03-08T10:02:15;94580.59;;;8.26;79.75
6150;BME280;3106;42.670;23.318;2024-03-08T10:04:43;94614.66;;;8.32;80.00
6150;BME280;3106;42.670;23.318;2024-03-08T10:07:12;94614.84;;;8.56;79.73
6150;BME280;3106;42.670;23.318;2024-03-08T10:09:39;94614.03;;;8.56;80.11
6150;BME280;3106;42.670;23.318;2024-03-08T10:12:08;94610.84;;;8.42;79.17
6150;BME280;3106;42.670;23.318;2024-03-08T10:14:39;94609.88;;;8.26;80.49
6150;BME280;3106;42.670;23.318;2024-03-08T10:17:06;94613.88;;;8.40;81.80
6150;BME280;3106;42.670;23.318;2024-03-08T10:19:35;94595.66;;;8.22;81.22
6150;BME280;3106;42.670;23.318;2024-03-08T10:22:01;94614.03;;;8.06;81.70
6150;BME280;3106;42.670;23.318;2024-03-08T10:24:31;94612.69;;;7.92;83.11
6150;BME280;3106;42.670;23.318;2024-03-08T10:26:59;94607.94;;;7.68;83.66
6150;BME280;3106;42.670;23.318;2024-03-08T10:29:27;94616.03;;;7.72;84.29
6150;BME280;3106;42.670;23.318;2024-03-08T10:31:54;94607.69;;;7.82;84.33
6150;BME280;3106;42.670;23.318;2024-03-08T10:34:22;94615.78;;;8.02;82.42
6150;BME280;3106;42.670;23.318;2024-03-08T10:36:51;94609.03;;;8.34;81.24
6150;BME280;3106;42.670;23.318;2024-03-08T10:39:21;94600.06;;;8.38;78.07
6150;BME280;3106;42.670;23.318;2024-03-08T10:41:52;94538.22;;;8.33;77.54
6150;BME280;3106;42.670;23.318;2024-03-08T10:44:32;94606.31;;;9.03;75.35
6150;BME280;3106;42.670;23.318;2024-03-08T10:47:15;94599.78;;;9.45;75.79
6150;BME280;3106;42.670;23.318;2024-03-08T10:49:54;94592.06;;;10.00;74.65
6150;BME280;3106;42.670;23.318;2024-03-08T10:52:23;94587.44;;;10.21;72.40
6150;BME280;3106;42.670;23.318;2024-03-08T10:54:52;94590.97;;;10.01;71.26
6150;BME280;3106;42.670;23.318;2024-03-08T10:57:22;94587.47;;;9.65;71.33
6150;BME280;3106;42.670;23.318;2024-03-08T10:59:49;94590.81;;;9.62;72.80
6150;BME280;3106;42.670;23.318;2024-03-08T11:02:17;94586.41;;;9.33;70.97
6150;BME280;3106;42.670;23.318;2024-03-08T11:04:48;94570.41;;;9.01;71.51
6150;BME280;3106;42.670;23.318;2024-03-08T11:07:15;94578.34;;;9.09;72.49
6150;BME280;3106;42.670;23.318;2024-03-08T11:09:47;94574.56;;;9.10;71.53
6150;BME280;3106;42.670;23.318;2024-03-08T11:12:22;94563.75;;;9.07;72.50
6150;BME280;3106;42.670;23.318;2024-03-08T11:14:53;94574.69;;;9.14;70.26
6150;BME280;3106;42.670;23.318;2024-03-08T11:17:41;94562.00;;;9.11;70.69
6150;BME280;3106;42.670;23.318;2024-03-08T11:20:12;94571.44;;;9.08;70.55
6150;BME280;3106;42.670;23.318;2024-03-08T11:22:42;94569.16;;;9.19;71.51
6150;BME280;3106;42.670;23.318;2024-03-08T11:25:33;94557.59;;;9.15;72.63
6150;BME280;3106;42.670;23.318;2024-03-08T11:28:20;94547.59;;;9.24;73.03
6150;BME280;3106;42.670;23.318;2024-03-08T11:31:22;94562.22;;;9.50;73.43
6150;BME280;3106;42.670;23.318;2024-03-08T11:33:49;94555.22;;;9.70;72.82
6150;BME280;3106;42.670;23.318;2024-03-08T11:36:20;94552.66;;;9.49;70.08
6150;BME280;3106;42.670;23.318;2024-03-08T11:38:48;94563.97;;;9.34;70.98
6150;BME280;3106;42.670;23.318;2024-03-08T11:41:20;94556.47;;;9.16;71.69
6150;BME280;3106;42.670;23.318;2024-03-08T11:43:47;94553.91;;;8.87;71.66
6150;BME280;3106;42.670;23.318;2024-03-08T11:46:16;94552.53;;;9.01;73.23
6150;BME280;3106;42.670;23.318;2024-03-08T11:48:44;94551.88;;;9.04;70.66
6150;BME280;3106;42.670;23.318;2024-03-08T11:51:11;94551.25;;;9.19;71.02
6150;BME280;3106;42.670;23.318;2024-03-08T11:53:39;94553.19;;;9.43;70.92
6150;BME280;3106;42.670;23.318;2024-03-08T11:56:09;94545.88;;;9.64;69.08
6150;BME280;3106;42.670;23.318;2024-03-08T11:58:38;94551.00;;;9.69;64.92
6150;BME280;3106;42.670;23.318;2024-03-08T12:01:05;94546.78;;;9.68;66.64
6150;BME280;3106;42.670;23.318;2024-03-08T12:03:34;94545.25;;;10.03;64.37
6150;BME280;3106;42.670;23.318;2024-03-08T12:06:01;94541.78;;;10.26;63.78
6150;BME280;3106;42.670;23.318;2024-03-08T12:08:30;94541.69;;;10.23;62.22
6150;BME280;3106;42.670;23.318;2024-03-08T12:10:57;94539.09;;;9.78;64.02
6150;BME280;3106;42.670;23.318;2024-03-08T12:13:26;94546.00;;;9.67;65.70
6150;BME280;3106;42.670;23.318;2024-03-08T12:15:56;94548.97;;;9.42;65.02
6150;BME280;3106;42.670;23.318;2024-03-08T12:18:24;94550.28;;;9.36;66.18
6150;BME280;3106;42.670;23.318;2024-03-08T12:20:51;94522.78;;;9.23;65.53
6150;BME280;3106;42.670;23.318;2024-03-08T12:23:20;94542.25;;;9.24;66.07
6150;BME280;3106;42.670;23.318;2024-03-08T12:25:47;94518.25;;;9.36;66.44
6150;BME280;3106;42.670;23.318;2024-03-08T12:28:14;94506.03;;;9.35;66.33
6150;BME280;3106;42.670;23.318;2024-03-08T12:30:46;94543.28;;;9.31;66.34
6150;BME280;3106;42.670;23.318;2024-03-08T12:33:15;94532.63;;;9.55;66.69
6150;BME280;3106;42.670;23.318;2024-03-08T12:35:51;94526.66;;;9.70;64.33
6150;BME280;3106;42.670;23.318;2024-03-08T12:38:20;94526.75;;;9.98;63.62
6150;BME280;3106;42.670;23.318;2024-03-08T12:40:50;94528.97;;;10.20;63.32
6150;BME280;3106;42.670;23.318;2024-03-08T12:43:18;94529.13;;;10.50;64.28
6150;BME280;3106;42.670;23.318;2024-03-08T12:45:48;94523.94;;;10.42;64.20
6150;BME280;3106;42.670;23.318;2024-03-08T12:48:18;94516.50;;;10.36;64.76
6150;BME280;3106;42.670;23.318;2024-03-08T12:50:47;94505.94;;;9.91;65.30
6150;BME280;3106;42.670;23.318;2024-03-08T12:53:16;94507.84;;;9.79;67.94
6150;BME280;3106;42.670;23.318;2024-03-08T12:55:43;94509.72;;;9.54;67.55
6150;BME280;3106;42.670;23.318;2024-03-08T12:58:11;94513.72;;;9.36;69.66
6150;BME280;3106;42.670;23.318;2024-03-08T13:00:38;94478.78;;;9.05;68.43
6150;BME280;3106;42.670;23.318;2024-03-08T13:03:08;94528.78;;;9.20;68.95
6150;BME280;3106;42.670;23.318;2024-03-08T13:05:37;94521.31;;;9.02;68.60
6150;BME280;3106;42.670;23.318;2024-03-08T13:08:06;94513.84;;;8.96;69.12
6150;BME280;3106;42.670;23.318;2024-03-08T13:10:37;94527.81;;;8.93;68.47
6150;BME280;3106;42.670;23.318;2024-03-08T13:13:04;94520.16;;;8.91;69.11
6150;BME280;3106;42.670;23.318;2024-03-08T13:15:31;94513.81;;;8.84;68.65
6150;BME280;3106;42.670;23.318;2024-03-08T13:17:59;94525.16;;;8.93;68.43
6150;BME280;3106;42.670;23.318;2024-03-08T13:20:25;94527.09;;;9.04;68.71
6150;BME280;3106;42.670;23.318;2024-03-08T13:22:55;94515.88;;;9.10;67.70
6150;BME280;3106;42.670;23.318;2024-03-08T13:25:22;94515.72;;;8.95;67.57